Timeline UpdatesTrip UpdatesNews PostsPvt PostsTravel TipsAdmin PostsConv PostsFollowed PostsChat RequestsBlog PostsPNR Posts

Disclaimer
Search
 
 
Wed Sep 17, 2014 05:02:10 ISTHomeTrainsΣChainsAtlasPNRForumGalleryNewsFAQTripsMembersLoginFeedback
No Recent News for this Train
Other Trains in the News **new
Latest...
⇐ Return Journey: Train# 54805

54806/Jaipur Ahmedabad Passenger

Time-Table HAS CHANGED.
Sep 02 (12:22AM)
Change Departure Station:
Change Arrival Station:
Post a Train Travel TipPost a Train Travel Tip **new
Post a Comment/Question/Picture/VideoPost a Comment/Question/Picture/Video
Pantry/Catering
???
RSA - Rake Sharing
3 different rounds (6 services) are run by the rakes of this train. 54803 Jodhpur (JU) - Ahemedabad (ADI) becomes 54806 for Ahmedabad - Ajmer (AII) which further goes to Jaipur (JP) as 54807. 54808 comes from Jaipur to Ajmer which further goes to Ahmedabad as 54805 and becomes...
Read more...
54804 from Ahmedabad to Jodhpur.
Rake/Coach Composition
SL and GEN Coaches
Loco
News    PNR    Forum    Time-Table    Availability    Fare Chart    Map    Arr/Dep History    Trips    Gallery    ΣChains    X/O    Timeline    
Travel Time: 4h 42m    15 halts    Distance: 125 km    Avg Speed: 26 km/hr
Type: Passenger
Zone: NWR/North Western
Departs @ 22:58
Platform# ???
SMTWTFS
Dharewada/DRW 
Arrives @ 03:40
Platform# 10
SMTWTFS
Ahmedabad Junction/ADI 

15 halts. 33 intermediate Stations between Dharewada and Ahmedabad Junction

Show ALL intermediate Stations  Show Old Time-Table

#CodeStation NameX/OArrivesAvgDepartsAvgHaltPFDay#KmSpeedElevZoneAddress
1JPJaipur Junction (7)  -05:35---1-516.159434mNWRJaipur, Rajasthan
2KKUKanakpura  05:44-05:46-2m--1-507.274429mNWRJaipur, Rajasthan
3SHNXSheo Singh PuraX  05:57-05:59-2m--1-493.772411mNWRJaipur, Rajasthan
4JOBAsalpur Jobner  06:11-06:13-2m--1-479.472379mNWRJaipur, Rajasthan
5HDAHirnodaX  06:21-06:23-2m--1-469.752400mNWRJaipur, Rajasthan
6FLPhulera Junction (5)X  06:33-06:38-5m--1-461.046386mNWRPhulera, Rajasthan
7NRINaraina  06:51-06:53-2m--1-451.163377mNWRAjmer, Rajasthan
8DTRADantraX  06:58-07:00-2m--1-445.951366mNWRMDR 85, Rajasthan
9SKSakhun  07:08-07:10-2m--1-439.159392mNWRAjmer, Rajasthan
10SALISaliX  07:17-07:19-2m--1-432.270395mNWRAjmer, Rajasthan
11GLTAGahlota  07:26 07:25-07:27-1 2m--1-425.251417mNWRKishangarh, Rajasthan
12TLTiloniyaX  07:32-07:34-2m--1-420.943428mNWRTiloniya, Rajasthan
13KSGKishangarh (3)X  07:55 07:49-07:57 07:51-2m--1-410.236443mNWRKishangarh, Rajasthan
14GEKGegal Akhri  08:07-08:09-2m--1-400.738459mNWRKishangarh, Rajasthan
15LRLadpura (2)O  08:18-08:20-2m--1-395.014468mNWRAjmer, Rajasthan
16MDJNMadar Junction  09:05 08:48-09:07 08:50-2m--1-388.314490mNWRAjmer, Rajasthan
17AIIAjmer Junction (5)  09:20-10:05-45m--1-381.437464mNWRPin: 305001, Rajasthan
18DOZDaurai  10:08 10:17-10:10 10:19-2m--1-374.038458mNWRMadar, Rajasthan
19SDHSaradhnaX  10:32-10:34-2m--1-365.748461mNWRMangaliyawas, Rajasthan
20MKRAMakrera  10:40-10:42-2m--1-360.962446mNWRKharwa, Rajasthan
21MLIMangaliyawas  10:47-10:49-2m--1-355.757430mNWRMangliyawas Railway Station, Rajasthan
22LNALamana  10:54-10:56-2m--1-351.030441mNWRBeawar, Rajasthan
23KRWKharwaX  11:08-11:10-2m--1-344.962439mNWRAjmer, Rajasthan
24PPFPiplajX  11:16-11:18-2m--1-338.735449mNWRBeawar, Rajasthan
25BERBeawar (2)  11:31 11:34-11:33 11:36-2m--1-329.249447mNWRBeawar, Rajasthan
26APAAmarpura  11:40 11:43-11:42 11:45-2m--1-323.570468mNWRKharwa, Rajasthan
27SEUSendra  11:49 11:52-11:51 11:54-2m--1-315.358427mNWRSabalpura, Rajasthan
28BARBar  12:00 12:03-12:02 12:05-2m--1-306.670383mNWRHaripur, Rajasthan
29HPHaripur  12:11 12:14-12:13 12:16-2m--1-296.068345mNWRPali, Rajasthan
30GRIGuriyaO  12:20 12:23-12:22 12:25-2m--1-288.129323mNWRPali, Rajasthan
31CNLChandawal  12:46-12:48-2m--1-277.986304mNWRPali, Rajasthan
32BGXBagri SajjanpurX  12:52-12:54-2m--1-272.250298mNWRHaripur, Rajasthan
33BQNBagri Nagar  12:59-13:01-2m--1-268.045295mNWRMarwar, Rajasthan
34SODSojat Road (2)  13:08-13:10-2m--1-262.756295mNWRSojat Road, Rajasthan
35BFYBhesanaX  13:16-13:18-2m--1-257.256285mNWRMarwar, Rajasthan
36DRSDhareshwar  13:25-13:27-2m--1-250.641275mNWRMarwar Jn, Rajasthan
37MJMarwar Junction (4)X  13:40-13:55-15m--1-241.847267mNWRMarwar Junction, Rajasthan
38AUWAAuwa (2)X  14:06-14:08-2m--1-233.234265mNWRSomesar, Rajasthan
39BGGBanta RaghunathgarhX  14:21-14:23-2m--1-225.860266mNWRSomesar, Rajasthan
40BWABhinwaliya  14:29-14:31-2m--1-219.952268mNWRPindwara, Rajasthan
41SOSSomesarX  14:38-14:40-2m--1-213.932269mNWRSomesar, Rajasthan
42JALJawali  14:56-14:58-2m--1-205.465270mNWRRania, Rajasthan
43BGPRBhagwanpuraX  15:05-15:07-2m--1-197.840276mNWRSomesar, Rajasthan
44RANIRani  15:19-15:21-2m--1-189.855280mNWRRania, Rajasthan
45KZQKhimel  15:28-15:30-2m--1-183.448277mNWRJawai Bandh, Rajasthan
46FAFalna (2)  15:47 15:40-15:50-3 10m--1-175.380282mNWRFalna, Rajasthan
47BRLYBiroliya  15:56-15:58-2m--1-167.370294mNWRBiroliya Rd, Rajasthan
48JWBJawai BandhX  16:05-16:07-2m--1-159.138292mNWRPali, Rajasthan
49MOIMori BeraX  16:22-16:24-2m--1-149.721323mNWRNana, Rajasthan
50KTRKotharX  16:42-16:44-2m--1-143.526346mNWRPali, Rajasthan
51NANANana  16:58-17:00-2m--1-137.360355mNWRNana, Rajasthan
52KVJKeshavganj  17:09-17:11-2m--1-128.368393mNWRJawai Bandh, Rajasthan
53SOHSirohi Road (2)  17:21 17:18-17:23 17:20-2m--1-120.367369mNWRPindwara, Rajasthan
54BNSBanas  17:32 17:29-17:34 17:31-2m--1-110.263347mNWRSirohi Road, Rajasthan
55SRPJSwarupGanj  17:42 17:39-17:44 17:41-2m--1-101.964334mNWRSirohi Road, Rajasthan
56BMNBhimana  17:52 17:49-17:54 17:51-2m--1-93.359313mNWRAbu Road, Rajasthan
57KWIKivarli  18:02 17:59-18:04 18:01-2m--1-85.459281mNWRShri Amirgadh, Rajasthan
58MXOMorthala  18:11 18:07-18:13 18:09-2m--1-79.617267mNWRNH 14, Rajasthan
59ABRAbu Road (3)  18:25 18:20-18:45 18:40-20m--1-76.443264mNWRSirohi Dist, Rajasthan
60MAAMaval  18:56 18:53-18:58 18:55-2m--1-67.139245mNWRNational Highway 14, Rajasthan
61SIMShri Amirgadh  19:06 19:08-19:08 19:10-2m--1-58.727229mNWRAmirgadh, Gujarat
62SZASarotra RoadXO  19:32 19:22-19:34 19:24-2m--1-53.410216mNWRSarotra, Gujarat
63IQGIqbal GadhX  20:07-20:09-2m--1-45.915209mNWRBanaskantha, Gujarat
64JTYJethi  20:33-20:35-2m--1-39.744212mNWRBANASKANTHA, Gujarat
65CTTChitrasani  20:41-20:43-2m--1-35.346225mNWRChitrasani, Gujarat
66KRJDKarjodaXO  20:50-20:52-2m--1-29.96234mNWRChhapi, Gujarat
67PNUPalanpur Junction (5)  21:55-22:00-5m--1-23.872216mWRPalanpur, Gujarat
68UMUmardashiXO  22:07-22:09-2m--1-15.515187mWRChitrasani, Gujarat
69CHPChhapi  22:40-22:42-2m--1-7.633169mWRBanaskantha, Gujarat
70DRW»Dharewada»X  22:56-22:58-2m--10.033145mWRUnjha, Gujarat
71SIDSiddhpurX  23:08-23:10-2m--15.676136mWRState Highway 41, Gujarat
72KMLIKamliX  23:15-23:17-2m--111.949126mWRChhapi, Gujarat
73UJAUnjha  23:26-23:28-2m--119.364116mWRUnjha, Gujarat
74BHUBhandu Motidau  23:38-23:40-2m--130.0097mWRMahesana, Gujarat
75MSHMahesana Junction (6)  23:53 23:53-00:30 00:30-37m--141.1095mWRMehsana, Gujarat
76JDNJagudan  00:40-00:42-2m--150.93990mWRKochva Road, Gujarat
77UMNAmbliyasanX  00:54-01:05 00:56-11 2m--158.82990mWRMehsana, Gujarat
78DNWDangarwa  01:12-01:14-2m--166.66683mWRJagudan, Gujarat
79JULJhulasan (3)X  01:20-01:22-2m--173.12377mWRMehsana, Gujarat
80PNPansar  01:28-01:30-2m--175.46774mWRPalanpur, Gujarat
81ENIsand  01:32-01:34-2m--177.73277mWRKhodiyar, Gujarat
82KLLKalol (3)X  01:44-02:00-16m--183.06571mWRKalol, Gujarat
83KHDKhodiyar  02:10-02:12-2m--193.711265mWRGandhinagar, Gujarat
84CLDYChandlodiya  02:23-02:25-2m--1114.32859mWRAhmedabad, Gujarat
85SBISabarmati Junction (3)  02:37-02:50 02:39-13 2m--1119.9555mWRAhmadabad, Gujarat
86ADI•Ahmedabad Junction (12)•  03:40--101125.4-51mWRAhmedabad, Gujarat
Scroll to Top
Scroll to Bottom